Time;durP1;ratioP1;P1;durP2;ratioP2;P2;SDS_P1;SDS_P2;PMS_P1;PMS_P2;Temp;Humidity;BMP_temperature;BMP_pressure;BME280_temperature;BME280_humidity;BME280_pressure;Samples;Min_cycle;Max_cycle;Signal;HPM_P1;HPM_P2
2024/02/12 00:00:54;;;;;;;8.90;2.80;;;;;;;4.11;79.63;94097.88;106641;1275;24278;-78
2024/02/12 00:03:40;;;;;;;11.30;3.10;;;;;;;4.15;79.89;94096.08;106596;1275;24987;-78
2024/02/12 00:06:08;;;;;;;13.40;4.20;;;;;;;4.12;79.61;94096.99;106745;1275;22723;-78
2024/02/12 00:08:37;;;;;;;12.20;4.30;;;;;;;4.11;80.61;94094.92;106779;1275;24254;-78
2024/02/12 00:11:06;;;;;;;21.00;7.20;;;;;;;4.07;80.54;94105.98;106619;1275;25644;-78
2024/02/12 00:13:35;;;;;;;8.90;4.70;;;;;;;4.04;80.74;94103.58;106419;1276;24257;-78
2024/02/12 00:16:05;;;;;;;8.60;3.50;;;;;;;4.09;80.43;94101.59;106503;1276;22536;-78
2024/02/12 00:18:36;;;;;;;6.70;2.90;;;;;;;4.13;80.06;94107.78;106608;1276;22539;-78
2024/02/12 00:21:05;;;;;;;10.90;4.40;;;;;;;4.13;80.59;94106.38;106742;1276;25353;-78
2024/02/12 00:23:34;;;;;;;5.50;2.80;;;;;;;4.10;80.51;94111.66;106682;1276;24381;-78
2024/02/12 00:26:02;;;;;;;7.70;3.20;;;;;;;4.10;80.47;94104.52;106579;1276;22520;-78
2024/02/12 00:28:31;;;;;;;13.40;3.20;;;;;;;4.10;80.66;94107.30;106798;1276;22820;-78
2024/02/12 00:30:59;;;;;;;6.10;2.80;;;;;;;4.10;80.21;94112.86;106691;1276;22540;-77
2024/02/12 00:33:28;;;;;;;10.80;2.60;;;;;;;4.13;80.23;94110.90;106600;1276;25364;-78
2024/02/12 00:35:58;;;;;;;9.90;3.70;;;;;;;4.14;79.98;94118.89;106740;1276;24303;-78
2024/02/12 00:38:27;;;;;;;8.90;3.20;;;;;;;4.18;80.53;94118.11;106841;1276;25253;-77
2024/02/12 00:40:56;;;;;;;9.00;2.80;;;;;;;4.20;80.27;94116.00;106573;1276;22639;-78
2024/02/12 00:43:26;;;;;;;8.50;3.10;;;;;;;4.16;79.77;94126.86;106570;1276;24245;-78
2024/02/12 00:45:55;;;;;;;10.80;3.80;;;;;;;4.16;80.17;94125.30;106672;1276;22807;-78
2024/02/12 00:48:25;;;;;;;6.40;2.80;;;;;;;4.15;80.15;94123.77;106541;1276;24762;-78
2024/02/12 00:50:53;;;;;;;13.00;4.20;;;;;;;4.10;80.11;94123.49;106615;1276;25497;-78
2024/02/12 00:53:21;;;;;;;12.10;4.00;;;;;;;4.11;80.44;94122.96;106617;1276;22549;-78
2024/02/12 00:55:50;;;;;;;10.60;3.30;;;;;;;4.12;80.69;94121.88;106572;1276;24413;-78
2024/02/12 00:58:18;;;;;;;9.20;3.20;;;;;;;4.09;80.62;94113.24;106589;1276;24244;-78
2024/02/12 01:00:47;;;;;;;8.90;3.30;;;;;;;4.07;80.34;94110.84;106542;1276;22518;-78
2024/02/12 01:03:17;;;;;;;9.60;2.90;;;;;;;4.10;80.78;94109.39;106632;1276;25346;-78
2024/02/12 01:05:45;;;;;;;13.10;3.40;;;;;;;4.07;80.69;94110.84;106709;1276;22532;-78
2024/02/12 01:08:15;;;;;;;7.60;3.10;;;;;;;4.08;80.49;94110.48;106533;1276;25571;-78
2024/02/12 01:10:43;;;;;;;10.50;3.80;;;;;;;4.10;80.56;94106.78;106834;1276;22578;-78
2024/02/12 01:13:12;;;;;;;8.90;3.70;;;;;;;4.09;80.25;94105.59;106623;1265;22524;-78
2024/02/12 01:15:41;;;;;;;5.70;3.10;;;;;;;4.09;80.36;94096.18;106626;1254;24406;-78
2024/02/12 01:18:09;;;;;;;10.80;2.90;;;;;;;4.09;80.39;94089.06;106577;1276;23885;-78
2024/02/12 01:20:39;;;;;;;7.10;2.70;;;;;;;4.09;80.22;94090.45;106697;1276;22532;-78
2024/02/12 01:23:08;;;;;;;7.80;3.30;;;;;;;4.09;80.24;94090.95;106600;1276;22530;-78
2024/02/12 01:25:36;;;;;;;11.30;5.00;;;;;;;4.03;80.66;94090.55;106574;1276;22598;-78
2024/02/12 01:28:05;;;;;;;11.00;3.70;;;;;;;4.00;80.74;94084.89;106673;1276;22523;-78
2024/02/12 01:30:35;;;;;;;6.50;2.90;;;;;;;3.95;80.93;94089.30;106336;1276;24241;-77
2024/02/12 01:33:03;;;;;;;6.10;2.60;;;;;;;3.89;81.36;94086.44;106583;1276;23908;-78
2024/02/12 01:35:33;;;;;;;6.40;3.30;;;;;;;3.81;80.68;94090.24;106657;1276;22523;-78
2024/02/12 01:38:03;;;;;;;8.10;3.30;;;;;;;3.78;81.12;94082.63;106323;1260;22526;-78
2024/02/12 01:40:31;;;;;;;7.30;3.10;;;;;;;3.78;81.37;94073.23;106628;1276;24308;-78
2024/02/12 01:42:59;;;;;;;11.40;3.50;;;;;;;3.77;80.96;94079.70;106575;1276;25361;-78
2024/02/12 01:45:28;;;;;;;7.10;2.60;;;;;;;3.78;81.41;94077.93;106603;1276;22534;-77
2024/02/12 01:48:02;;;;;;;8.50;4.20;;;;;;;3.74;81.64;94081.48;106866;1276;22586;-78
2024/02/12 01:50:32;;;;;;;14.40;5.50;;;;;;;3.67;81.23;94081.43;106573;1276;24308;-78
2024/02/12 01:53:01;;;;;;;8.50;3.40;;;;;;;3.62;81.30;94084.80;106606;1276;23573;-78
2024/02/12 01:55:31;;;;;;;7.40;3.60;;;;;;;3.62;82.63;94081.68;106670;1265;22751;-78
2024/02/12 01:57:59;;;;;;;6.60;2.70;;;;;;;3.58;81.95;94081.04;106497;1276;23891;-78
2024/02/12 02:00:27;;;;;;;6.00;2.70;;;;;;;3.58;82.05;94079.31;106567;1276;22626;-77
2024/02/12 02:03:05;;;;;;;10.10;3.20;;;;;;;3.56;82.30;94080.91;106661;1276;24474;-77
2024/02/12 02:05:34;;;;;;;13.90;5.30;;;;;;;3.54;81.96;94077.98;106652;1254;24221;-77
2024/02/12 02:08:04;;;;;;;10.00;4.90;;;;;;;3.49;81.57;94077.89;106598;1276;22589;-77
2024/02/12 02:10:32;;;;;;;7.50;3.40;;;;;;;3.49;81.84;94076.16;106634;1276;24294;-78
2024/02/12 02:13:01;;;;;;;12.60;3.90;;;;;;;3.50;82.04;94077.69;106595;1276;22530;-78
2024/02/12 02:15:29;;;;;;;7.50;2.80;;;;;;;3.47;81.94;94078.09;106590;1276;24580;-77
2024/02/12 02:17:57;;;;;;;5.20;3.10;;;;;;;3.45;81.62;94076.76;106549;1276;22526;-78
2024/02/12 02:20:26;;;;;;;12.30;4.10;;;;;;;3.40;81.66;94079.42;106357;1276;24352;-78
2024/02/12 02:22:56;;;;;;;10.70;4.40;;;;;;;3.31;82.11;94084.09;106623;1276;24221;-78
2024/02/12 02:25:24;;;;;;;6.00;3.10;;;;;;;3.26;82.63;94083.97;106622;1276;24300;-77
2024/02/12 02:27:53;;;;;;;8.70;3.40;;;;;;;3.24;82.73;94085.39;106586;1276;22767;-78
2024/02/12 02:30:21;;;;;;;10.30;3.30;;;;;;;3.20;82.35;94089.27;106533;1276;25411;-77
2024/02/12 02:32:50;;;;;;;11.40;3.50;;;;;;;3.18;82.48;94088.61;106543;1276;22648;-77
2024/02/12 02:35:19;;;;;;;51.20;17.70;;;;;;;3.19;82.51;94091.73;106585;1276;24384;-78
2024/02/12 02:37:48;;;;;;;12.40;4.80;;;;;;;3.13;82.06;94090.42;106539;1276;22541;-78
2024/02/12 02:40:16;;;;;;;7.40;3.00;;;;;;;3.03;81.90;94089.00;106522;1276;22604;-78
2024/02/12 02:42:46;;;;;;;22.10;8.30;;;;;;;3.00;82.77;94095.47;106588;1276;22673;-78
2024/02/12 02:45:15;;;;;;;13.90;4.80;;;;;;;2.95;82.38;94096.05;106650;1276;24268;-77
2024/02/12 02:47:44;;;;;;;8.50;3.30;;;;;;;2.92;82.69;94088.63;106582;1276;22524;-78
2024/02/12 02:50:12;;;;;;;11.20;3.60;;;;;;;2.90;82.58;94090.20;106595;1276;25464;-78
2024/02/12 02:52:41;;;;;;;9.00;3.50;;;;;;;2.93;82.54;94092.95;106568;1276;25247;-78
2024/02/12 02:55:11;;;;;;;8.00;3.40;;;;;;;2.94;82.33;94086.69;106570;1276;24351;-78
2024/02/12 02:57:40;;;;;;;8.20;3.10;;;;;;;2.93;82.22;94081.48;106618;1276;22810;-78
2024/02/12 03:00:09;;;;;;;21.50;7.60;;;;;;;2.89;82.31;94090.06;106763;1276;22660;-78
2024/02/12 03:02:39;;;;;;;35.40;12.20;;;;;;;2.82;82.23;94088.93;106816;1276;24401;-78
2024/02/12 03:05:09;;;;;;;9.60;4.70;;;;;;;2.72;82.15;94088.70;106715;1276;25300;-78
2024/02/12 03:07:45;;;;;;;17.00;6.40;;;;;;;2.70;82.74;94077.10;106610;1276;25530;-78
2024/02/12 03:10:15;;;;;;;14.90;6.50;;;;;;;2.68;82.76;94079.57;106514;1276;22520;-78
2024/02/12 03:12:45;;;;;;;7.90;4.10;;;;;;;2.61;82.26;94088.85;106599;1276;22871;-78
2024/02/12 03:15:19;;;;;;;7.30;3.10;;;;;;;2.54;82.08;94087.89;106593;1276;25567;-78
2024/02/12 03:17:48;;;;;;;3.90;3.00;;;;;;;2.54;82.76;94100.39;106606;1276;25422;-78
2024/02/12 03:20:17;;;;;;;7.20;3.30;;;;;;;2.50;82.73;94108.25;106577;1276;22607;-78
2024/02/12 03:22:46;;;;;;;6.90;3.70;;;;;;;2.50;82.88;94108.08;106827;1276;22984;-78
2024/02/12 03:25:15;;;;;;;8.60;3.70;;;;;;;2.51;82.91;94097.81;106330;1273;598348;-78
2024/02/12 03:27:44;;;;;;;8.10;2.80;;;;;;;2.52;82.82;94098.49;106698;1276;25375;-78
2024/02/12 03:30:13;;;;;;;18.50;8.20;;;;;;;2.47;83.32;94104.11;106586;1276;23884;-78
2024/02/12 03:32:42;;;;;;;12.30;3.10;;;;;;;2.44;82.96;94102.58;106568;1276;25248;-78
2024/02/12 03:35:10;;;;;;;7.40;3.10;;;;;;;2.44;82.87;94099.45;106569;1276;22512;-78
2024/02/12 03:37:40;;;;;;;6.70;3.20;;;;;;;2.45;82.98;94095.11;106577;1276;24239;-78
2024/02/12 03:40:12;;;;;;;10.00;4.90;;;;;;;2.46;83.78;94094.23;106629;1276;22650;-78
2024/02/12 03:42:40;;;;;;;18.60;8.10;;;;;;;2.41;83.65;94095.18;106793;1276;25250;-77
2024/02/12 03:45:11;;;;;;;14.00;5.30;;;;;;;2.32;83.26;94102.38;106707;1276;23072;-78
2024/02/12 03:47:39;;;;;;;12.40;4.80;;;;;;;2.31;83.55;94105.69;106623;1276;23697;-77
2024/02/12 04:01:26;;;;;;;5.60;2.40;;;;;;;2.26;83.66;94102.63;106617;1276;22510;-78
2024/02/12 04:03:54;;;;;;;17.50;7.20;;;;;;;2.19;84.17;94103.21;106564;1276;25368;-78
2024/02/12 04:06:24;;;;;;;25.00;9.70;;;;;;;2.12;83.78;94114.38;106494;1276;22527;-78
2024/02/12 04:08:53;;;;;;;15.30;6.70;;;;;;;2.07;83.73;94115.31;106580;1276;24837;-78
2024/02/12 04:11:23;;;;;;;9.10;4.10;;;;;;;2.07;83.92;94108.02;106550;1276;23892;-78
2024/02/12 04:13:54;;;;;;;9.30;3.90;;;;;;;2.06;83.94;94108.20;106592;1276;25211;-77
2024/02/12 04:16:23;;;;;;;7.60;3.50;;;;;;;2.12;84.40;94104.84;106591;1276;23901;-78
2024/02/12 04:18:52;;;;;;;14.20;4.60;;;;;;;2.10;83.95;94102.10;106545;1258;22648;-77
2024/02/12 04:21:22;;;;;;;10.50;4.20;;;;;;;2.10;84.13;94099.48;106606;1276;22527;-78
2024/02/12 04:23:52;;;;;;;11.50;4.70;;;;;;;2.11;84.36;94096.18;106786;1276;24398;-78
2024/02/12 04:26:21;;;;;;;15.80;6.90;;;;;;;2.09;84.70;94097.24;106615;1276;22519;-78
2024/02/12 04:28:50;;;;;;;21.60;10.60;;;;;;;2.04;84.71;94094.52;106713;1276;22774;-77
2024/02/12 04:31:18;;;;;;;14.80;6.90;;;;;;;2.02;84.50;94093.16;106656;1276;24235;-77
2024/02/12 04:33:46;;;;;;;6.20;3.30;;;;;;;2.03;84.55;94091.24;106567;1276;25340;-77
2024/02/12 04:36:16;;;;;;;17.40;8.30;;;;;;;2.03;84.45;94090.38;106746;1276;25674;-78
2024/02/12 04:38:45;;;;;;;12.20;4.50;;;;;;;2.01;84.37;94093.33;106646;1276;23158;-77
2024/02/12 04:41:13;;;;;;;8.30;3.20;;;;;;;1.94;84.11;94092.54;106678;1276;25492;-77
2024/02/12 04:43:44;;;;;;;5.40;2.90;;;;;;;1.93;84.21;94091.67;106807;1276;22560;-78
2024/02/12 04:46:13;;;;;;;9.40;2.80;;;;;;;1.92;84.20;94100.70;106826;1252;22625;-77
2024/02/12 04:48:42;;;;;;;8.30;3.70;;;;;;;1.93;84.44;94103.63;106682;1276;23158;-77
2024/02/12 04:51:10;;;;;;;30.00;16.30;;;;;;;1.85;85.70;94109.09;106633;1276;24050;-78
2024/02/12 04:53:39;;;;;;;26.80;14.60;;;;;;;1.76;84.66;94114.36;106617;1276;25099;-78
2024/02/12 04:56:08;;;;;;;23.30;11.20;;;;;;;1.73;84.59;94115.79;106600;1276;22527;-77
2024/02/12 04:58:37;;;;;;;8.00;4.10;;;;;;;1.76;84.78;94118.19;106829;1276;25002;-77
2024/02/12 05:01:07;;;;;;;10.50;4.80;;;;;;;1.80;84.98;94117.98;106783;1276;25532;-77
2024/02/12 05:03:37;;;;;;;16.00;5.40;;;;;;;1.86;85.48;94116.36;106565;1276;22761;-78
2024/02/12 05:06:06;;;;;;;40.90;21.00;;;;;;;1.84;86.11;94113.79;106594;1276;24383;-78
2024/02/12 05:08:35;;;;;;;32.40;16.50;;;;;;;1.84;85.53;94116.04;106569;1276;24255;-78
2024/02/12 05:11:03;;;;;;;17.50;6.90;;;;;;;1.83;85.31;94120.72;106650;1276;24258;-77
2024/02/12 05:13:33;;;;;;;18.00;8.80;;;;;;;1.81;85.40;94118.84;106740;1273;25372;-78
2024/02/12 05:16:07;;;;;;;8.10;4.70;;;;;;;1.81;85.31;94121.45;106643;1275;22599;-78
2024/02/12 05:24:10;;;;;;;8.10;2.60;;;;;;;1.96;85.65;94114.70;106580;1275;26844;-78
2024/02/12 05:26:38;;;;;;;6.70;3.20;;;;;;;2.00;85.76;94113.80;106684;1275;22550;-78
2024/02/12 05:29:07;;;;;;;8.20;3.50;;;;;;;2.06;85.75;94114.27;106686;1275;24232;-78
2024/02/12 05:31:35;;;;;;;5.80;3.30;;;;;;;2.06;85.04;94109.41;106991;1275;22532;-77
2024/02/12 05:34:04;;;;;;;8.70;3.00;;;;;;;2.03;84.98;94114.30;106739;1275;24223;-78
2024/02/12 05:36:32;;;;;;;7.80;3.40;;;;;;;2.08;85.56;94110.95;106730;1275;24289;-78
2024/02/12 05:39:00;;;;;;;10.70;4.40;;;;;;;2.16;85.44;94108.80;106769;1275;22530;-78
2024/02/12 05:41:29;;;;;;;13.20;7.90;;;;;;;2.18;85.75;94111.89;106603;1275;24048;-78
2024/02/12 05:43:58;;;;;;;17.90;7.60;;;;;;;2.21;85.89;94113.08;106624;1275;24219;-78
2024/02/12 05:46:27;;;;;;;25.20;11.80;;;;;;;2.25;86.10;94113.04;106658;1275;25314;-78
2024/02/12 05:48:57;;;;;;;64.50;25.10;;;;;;;2.27;86.16;94112.67;106601;1275;25505;-78
2024/02/12 05:51:26;;;;;;;92.70;32.50;;;;;;;2.35;86.14;94117.95;106618;1275;24258;-78
2024/02/12 05:53:55;;;;;;;59.90;24.80;;;;;;;2.42;86.22;94119.80;106741;1275;22543;-78
2024/02/12 05:56:23;;;;;;;33.80;13.30;;;;;;;2.45;86.27;94122.20;106599;1275;23270;-78
2024/02/12 05:58:52;;;;;;;25.50;11.70;;;;;;;2.52;86.03;94124.01;106666;1275;25355;-76
2024/02/12 06:01:21;;;;;;;40.70;17.60;;;;;;;2.61;86.02;94127.05;106851;1275;22653;-78
2024/02/12 06:03:49;;;;;;;18.80;8.30;;;;;;;2.68;85.87;94123.31;106737;1275;22644;-77
2024/02/12 06:06:18;;;;;;;35.00;17.60;;;;;;;2.69;85.97;94134.23;106653;1275;22536;-77
2024/02/12 06:08:46;;;;;;;35.30;18.00;;;;;;;2.66;85.49;94143.14;106834;1275;22539;-77
2024/02/12 06:11:15;;;;;;;46.20;23.10;;;;;;;2.61;85.34;94142.66;106724;1271;22643;-78
2024/02/12 06:13:43;;;;;;;55.90;28.10;;;;;;;2.63;85.40;94140.91;106724;1275;24263;-77
2024/02/12 06:16:11;;;;;;;46.00;24.40;;;;;;;2.71;85.91;94139.95;106822;1261;25936;-78
2024/02/12 06:18:40;;;;;;;35.60;17.50;;;;;;;2.78;85.81;94135.34;106719;1274;22572;-80
2024/02/12 06:21:08;;;;;;;32.50;15.70;;;;;;;2.87;85.81;94134.88;106857;1275;22520;-77
2024/02/12 06:23:37;;;;;;;36.20;20.50;;;;;;;2.94;86.19;94131.33;106742;1275;22536;-76
2024/02/12 06:26:05;;;;;;;59.90;30.70;;;;;;;3.00;85.90;94131.77;106738;1272;23553;-78
2024/02/12 06:28:34;;;;;;;58.00;32.10;;;;;;;3.05;85.64;94146.13;108254;1275;22670;-77
2024/02/12 06:31:03;;;;;;;23.50;11.10;;;;;;;3.14;85.66;94148.09;108052;1275;24245;-78
2024/02/12 06:33:31;;;;;;;80.60;37.30;;;;;;;3.25;85.75;94147.59;106680;1275;22529;-78
2024/02/12 06:36:01;;;;;;;85.50;42.00;;;;;;;3.34;86.29;94148.67;107110;1275;24382;-78
2024/02/12 06:38:30;;;;;;;60.90;34.70;;;;;;;3.43;85.90;94149.08;107415;1274;25394;-78
2024/02/12 06:41:00;;;;;;;56.30;29.60;;;;;;;3.54;85.81;94145.08;106715;1275;24483;-76
2024/02/12 06:43:29;;;;;;;54.00;30.40;;;;;;;3.64;85.69;94142.50;106731;1275;22526;-77
2024/02/12 06:45:57;;;;;;;73.00;39.70;;;;;;;3.78;85.92;94139.15;106969;1274;25380;-77
2024/02/12 06:48:26;;;;;;;59.40;36.00;;;;;;;3.92;86.16;94140.66;106846;1271;22537;-77
2024/02/12 06:50:56;;;;;;;65.60;36.70;;;;;;;4.03;85.73;94147.28;106869;1275;22882;-78
2024/02/12 06:53:25;;;;;;;47.70;28.70;;;;;;;4.07;85.72;94148.94;106605;1274;25544;-78
2024/02/12 06:55:53;;;;;;;46.60;27.30;;;;;;;4.16;85.68;94147.23;106635;1275;24885;-78
2024/02/12 06:58:21;;;;;;;49.30;29.80;;;;;;;4.27;85.44;94142.52;106711;1275;25924;-78
2024/02/12 07:00:54;;;;;;;124.80;79.60;;;;;;;4.37;85.05;94138.86;106618;1275;22526;-79
2024/02/12 07:03:25;;;;;;;79.10;44.20;;;;;;;4.46;84.92;94139.21;106839;1275;25698;-78
2024/02/12 07:05:54;;;;;;;86.80;55.50;;;;;;;4.59;84.87;94133.39;106738;1275;25444;-80
2024/02/12 07:08:22;;;;;;;50.80;32.50;;;;;;;4.72;84.72;94131.58;107248;1275;24222;-81
2024/02/12 07:10:52;;;;;;;52.00;27.90;;;;;;;4.83;84.50;94131.36;107282;1275;27583;-80
2024/02/12 07:13:21;;;;;;;49.10;24.80;;;;;;;4.94;84.34;94136.89;107058;1275;25463;-78
2024/02/12 07:15:49;;;;;;;55.00;30.10;;;;;;;5.04;84.13;94134.08;106647;1275;22534;-78
2024/02/12 07:18:17;;;;;;;65.30;30.00;;;;;;;5.13;84.19;94130.91;107325;1275;24397;-77
2024/02/12 07:20:46;;;;;;;55.80;29.60;;;;;;;5.23;83.90;94121.27;106951;1271;24410;-77
2024/02/12 07:23:14;;;;;;;34.60;17.80;;;;;;;5.32;83.51;94109.77;107084;1275;22667;-77
2024/02/12 07:25:44;;;;;;;27.60;15.60;;;;;;;5.41;83.38;94101.70;106720;1275;25301;-77
2024/02/12 07:28:12;;;;;;;27.50;16.30;;;;;;;5.51;83.27;94095.90;106715;1262;22538;-77
2024/02/12 07:30:42;;;;;;;17.00;9.00;;;;;;;5.61;83.08;94091.48;106797;1275;25294;-78
2024/02/12 07:33:11;;;;;;;25.30;11.80;;;;;;;5.75;83.06;94088.20;106638;1275;25435;-77
2024/02/12 07:35:39;;;;;;;62.00;39.60;;;;;;;5.86;82.69;94088.98;106759;1275;23663;-77
2024/02/12 07:38:08;;;;;;;37.90;26.80;;;;;;;5.95;82.25;94089.11;107308;1275;25505;-77
2024/02/12 07:40:37;;;;;;;49.70;33.50;;;;;;;6.05;82.10;94091.67;107093;1275;22527;-78
2024/02/12 07:43:06;;;;;;;23.50;14.10;;;;;;;6.17;81.66;94096.42;106707;1275;22659;-78
2024/02/12 07:45:34;;;;;;;27.60;13.00;;;;;;;6.28;81.75;94095.80;106682;1275;22526;-78
2024/02/12 07:48:03;;;;;;;20.80;13.50;;;;;;;6.39;81.84;94097.08;106696;1275;22539;-78
2024/02/12 07:50:32;;;;;;;23.00;12.60;;;;;;;6.50;81.73;94100.27;106743;1275;24257;-77
2024/02/12 07:53:00;;;;;;;31.90;13.00;;;;;;;6.60;81.31;94099.15;106647;1275;25741;-78
2024/02/12 07:55:28;;;;;;;24.50;12.20;;;;;;;6.67;80.74;94096.49;106784;1275;24223;-77
2024/02/12 07:57:58;;;;;;;22.40;10.70;;;;;;;6.77;81.09;94097.09;107384;1275;22579;-79
2024/02/12 08:00:26;;;;;;;14.30;8.30;;;;;;;6.87;80.79;94092.98;107035;1275;22541;-78
2024/02/12 08:02:54;;;;;;;16.90;9.60;;;;;;;6.95;80.59;94089.23;106811;1275;25525;-79
2024/02/12 08:05:23;;;;;;;19.60;10.30;;;;;;;7.02;80.31;94088.16;106777;1275;22968;-76
2024/02/12 08:07:51;;;;;;;20.20;8.70;;;;;;;7.10;79.83;94087.05;106661;1275;22574;-76
2024/02/12 08:10:31;;;;;;;37.10;18.70;;;;;;;7.17;79.85;94083.87;106883;1275;23010;-78
2024/02/12 08:12:59;;;;;;;27.90;14.60;;;;;;;7.25;79.91;94082.77;106717;1275;25504;-78
2024/02/12 08:15:28;;;;;;;33.90;17.80;;;;;;;7.34;79.76;94081.42;107389;1275;24282;-78
2024/02/12 08:17:57;;;;;;;19.20;10.20;;;;;;;7.45;79.68;94081.81;107502;1275;24325;-77
2024/02/12 08:20:26;;;;;;;21.60;10.70;;;;;;;7.55;79.95;94085.52;106856;1275;22524;-78
2024/02/12 08:22:55;;;;;;;44.60;29.00;;;;;;;7.67;79.07;94083.23;106773;1275;22655;-76
2024/02/12 08:25:26;;;;;;;15.40;9.60;;;;;;;7.79;78.99;94079.34;106730;1263;24288;-78
2024/02/12 08:27:55;;;;;;;12.50;6.70;;;;;;;7.94;79.07;94069.75;106736;1275;22558;-77
2024/02/12 08:30:23;;;;;;;27.50;21.20;;;;;;;8.13;78.97;94073.51;106767;1275;22578;-77
2024/02/12 08:32:52;;;;;;;24.80;12.20;;;;;;;8.32;79.11;94075.86;106805;1275;22547;-77
2024/02/12 08:35:21;;;;;;;15.50;9.10;;;;;;;8.49;78.57;94078.10;106711;1275;22542;-77
2024/02/12 08:37:50;;;;;;;13.30;7.50;;;;;;;8.60;78.24;94078.04;107044;1275;25579;-78
2024/02/12 08:40:19;;;;;;;16.20;8.10;;;;;;;8.72;78.03;94076.05;106691;1274;25232;-78
2024/02/12 08:42:49;;;;;;;13.30;6.10;;;;;;;8.84;77.83;94077.73;106634;1269;22536;-78
2024/02/12 08:45:17;;;;;;;17.70;5.40;;;;;;;8.97;77.28;94081.11;106686;1275;22542;-80
2024/02/12 08:47:46;;;;;;;14.30;8.10;;;;;;;9.12;77.12;94083.20;107091;1275;24394;-81
2024/02/12 08:50:16;;;;;;;21.20;5.90;;;;;;;9.29;76.82;94079.04;107682;1264;22527;-78
2024/02/12 08:52:45;;;;;;;13.40;4.80;;;;;;;9.48;76.62;94081.66;107455;1275;22636;-79
2024/02/12 08:55:15;;;;;;;14.80;6.00;;;;;;;9.66;76.33;94080.77;106850;1275;22793;-80
2024/02/12 08:57:44;;;;;;;11.50;5.60;;;;;;;9.79;75.48;94085.88;106914;1275;24254;-78
2024/02/12 09:00:18;;;;;;;13.20;4.80;;;;;;;9.90;74.93;94081.73;107041;1275;24348;-78
2024/02/12 09:02:47;;;;;;;11.00;4.10;;;;;;;10.01;74.81;94083.08;106969;1275;22523;-78
2024/02/12 09:05:16;;;;;;;8.40;3.90;;;;;;;10.19;74.29;94080.73;107116;1275;22525;-78
2024/02/12 09:07:44;;;;;;;12.30;4.50;;;;;;;10.40;72.51;94079.73;106893;1275;25314;-77
2024/02/12 09:10:13;;;;;;;10.30;4.10;;;;;;;10.60;71.79;94078.19;106816;1275;24277;-79
2024/02/12 09:12:44;;;;;;;12.30;5.30;;;;;;;10.87;71.62;94074.36;106857;1275;23134;-77
2024/02/12 09:15:21;;;;;;;17.10;5.10;;;;;;;11.23;70.80;94073.30;107113;1275;25383;-78
2024/02/12 09:17:51;;;;;;;13.90;4.70;;;;;;;11.53;70.12;94071.23;106807;1275;24209;-79
2024/02/12 09:20:21;;;;;;;15.00;4.70;;;;;;;11.68;68.28;94070.85;106906;1275;23044;-80
2024/02/12 09:22:49;;;;;;;11.30;4.00;;;;;;;11.77;68.64;94074.67;106721;1265;24236;-81
2024/02/12 09:25:18;;;;;;;11.70;3.90;;;;;;;11.87;65.98;94073.16;106842;1275;25347;-79
2024/02/12 09:27:46;;;;;;;10.20;3.60;;;;;;;11.98;66.83;94071.44;106908;1275;24239;-78
2024/02/12 09:30:16;;;;;;;17.10;4.00;;;;;;;12.09;67.49;94069.45;108358;1275;25304;-76
2024/02/12 09:32:46;;;;;;;20.40;6.80;;;;;;;12.18;66.87;94070.97;106819;1265;24292;-77
2024/02/12 09:35:17;;;;;;;15.80;7.60;;;;;;;12.21;66.34;94073.10;106859;1275;22526;-77
2024/02/12 09:37:49;;;;;;;16.60;5.80;;;;;;;12.19;65.31;94073.21;107034;1271;22527;-77
2024/02/12 09:40:22;;;;;;;11.90;4.00;;;;;;;12.15;64.32;94069.33;106738;1275;24232;-77
2024/02/12 09:42:54;;;;;;;10.00;2.70;;;;;;;12.23;65.48;94070.56;106902;1275;25532;-78
2024/02/12 09:45:24;;;;;;;8.50;2.20;;;;;;;12.32;64.75;94065.15;106969;1275;22521;-78
2024/02/12 09:47:54;;;;;;;9.50;3.00;;;;;;;12.38;64.15;94062.20;106801;1275;23929;-78
2024/02/12 09:50:26;;;;;;;10.50;3.20;;;;;;;12.42;62.77;94058.65;106608;1275;24285;-78
2024/02/12 09:52:58;;;;;;;12.60;4.20;;;;;;;12.49;64.10;94054.94;106693;1275;22638;-78
2024/02/12 09:55:28;;;;;;;11.80;2.60;;;;;;;12.57;63.87;94054.89;106602;1275;22789;-78
2024/02/12 09:57:59;;;;;;;13.80;3.00;;;;;;;12.65;62.55;94047.45;106626;1275;22559;-77
2024/02/12 10:00:27;;;;;;;8.00;3.20;;;;;;;12.72;63.01;94045.14;106812;1275;22528;-80
2024/02/12 10:02:56;;;;;;;8.80;4.70;;;;;;;12.76;60.26;94046.54;106607;1275;22519;-79
2024/02/12 10:05:26;;;;;;;12.70;2.00;;;;;;;12.79;61.38;94043.54;106803;1275;22674;-78
2024/02/12 10:07:56;;;;;;;3.10;1.70;;;;;;;12.79;60.11;94042.14;106793;1275;22536;-77
2024/02/12 10:10:25;;;;;;;7.70;2.60;;;;;;;12.76;58.90;94041.23;106642;1275;22566;-77
2024/02/12 10:12:53;;;;;;;13.20;3.60;;;;;;;12.73;59.70;94045.59;106805;1275;22643;-77
2024/02/12 10:15:23;;;;;;;12.40;3.80;;;;;;;12.71;59.59;94046.08;106715;1275;22648;-77
2024/02/12 10:17:55;;;;;;;13.60;6.70;;;;;;;12.69;58.17;94044.41;106783;1275;26640;-77
2024/02/12 10:20:24;;;;;;;10.80;4.80;;;;;;;12.66;58.96;94038.59;106850;1274;25354;-78
2024/02/12 10:22:53;;;;;;;15.20;6.00;;;;;;;12.60;59.12;94041.86;106685;1275;25386;-77
2024/02/12 10:25:21;;;;;;;9.80;3.80;;;;;;;12.52;59.12;94041.40;106655;1275;24209;-77
2024/02/12 10:27:50;;;;;;;13.70;6.90;;;;;;;12.43;59.06;94043.98;106682;1275;24066;-77
2024/02/12 10:30:18;;;;;;;17.40;8.40;;;;;;;12.35;58.91;94045.23;106611;1275;25369;-77
2024/02/12 10:32:50;;;;;;;14.00;6.10;;;;;;;12.30;59.10;94040.59;106751;1275;25362;-77
2024/02/12 10:35:20;;;;;;;16.70;4.00;;;;;;;12.31;59.23;94038.73;106697;1275;22641;-77
2024/02/12 10:37:51;;;;;;;11.70;4.50;;;;;;;12.32;58.86;94037.64;106698;1274;22529;-77
2024/02/12 10:40:31;;;;;;;15.20;5.20;;;;;;;12.37;58.86;94033.88;106653;1275;25408;-77
2024/02/12 10:43:05;;;;;;;13.90;3.50;;;;;;;12.50;58.97;94030.38;106625;1275;25591;-77
2024/02/12 10:45:34;;;;;;;10.70;3.30;;;;;;;12.58;58.26;94026.80;106676;1275;26657;-77
2024/02/12 10:48:04;;;;;;;11.00;4.10;;;;;;;12.68;58.66;94029.67;106683;1275;24282;-78
2024/02/12 10:50:36;;;;;;;11.80;5.10;;;;;;;12.83;58.46;94031.89;106706;1275;22639;-78
2024/02/12 10:53:05;;;;;;;18.20;4.40;;;;;;;13.09;57.96;94029.45;106645;1275;25418;-77
2024/02/12 10:55:34;;;;;;;12.40;3.90;;;;;;;13.28;57.41;94030.02;106700;1275;22787;-78
2024/02/12 10:58:06;;;;;;;10.30;5.10;;;;;;;13.34;57.31;94027.95;106621;1275;24927;-78
2024/02/12 11:00:38;;;;;;;7.70;2.70;;;;;;;13.31;56.94;94025.44;106671;1275;22678;-77
2024/02/12 11:03:16;;;;;;;5.40;3.00;;;;;;;13.23;57.21;94023.73;106626;1275;23283;-77
2024/02/12 11:05:44;;;;;;;13.30;4.40;;;;;;;13.20;57.60;94023.03;106584;1275;25553;-77
2024/02/12 11:08:18;;;;;;;14.30;2.90;;;;;;;13.14;57.82;94019.47;106650;1275;22582;-77
2024/02/12 11:10:48;;;;;;;11.00;3.80;;;;;;;13.06;58.16;94019.86;106646;1275;22537;-77
2024/02/12 11:13:19;;;;;;;10.80;3.80;;;;;;;12.99;58.65;94017.27;106562;1275;22642;-77
2024/02/12 11:15:49;;;;;;;10.10;3.80;;;;;;;12.84;58.64;94017.87;106684;1275;22526;-77
2024/02/12 11:18:26;;;;;;;16.60;4.10;;;;;;;12.72;58.87;94016.54;106701;1275;25253;-77
2024/02/12 11:20:56;;;;;;;11.20;4.30;;;;;;;12.55;59.52;94016.77;106680;1275;25386;-77
2024/02/12 11:23:26;;;;;;;10.80;4.00;;;;;;;12.42;59.86;94012.83;106684;1275;25473;-77
2024/02/12 11:25:56;;;;;;;12.00;4.20;;;;;;;12.30;60.59;94018.01;106635;1275;22623;-77
2024/02/12 11:28:29;;;;;;;9.10;4.00;;;;;;;12.18;61.39;94020.21;106645;1275;22582;-77
2024/02/12 11:30:59;;;;;;;12.00;5.50;;;;;;;12.09;61.60;94025.23;106663;1275;22631;-77
2024/02/12 11:33:27;;;;;;;13.60;4.90;;;;;;;11.96;61.79;94017.92;106682;1275;22601;-77
2024/02/12 11:36:07;;;;;;;11.50;5.40;;;;;;;11.85;62.51;94016.00;106644;1275;25645;-77
2024/02/12 11:38:37;;;;;;;10.20;4.70;;;;;;;11.73;62.76;94024.82;106714;1275;25308;-77
2024/02/12 11:41:06;;;;;;;11.90;4.00;;;;;;;11.63;63.11;94027.39;106630;1275;22598;-77
2024/02/12 11:43:34;;;;;;;7.60;2.80;;;;;;;11.58;63.65;94029.25;106621;1275;23915;-78
2024/02/12 11:46:03;;;;;;;10.90;4.00;;;;;;;11.54;63.77;94027.86;106598;1275;22513;-77
2024/02/12 11:48:31;;;;;;;7.90;3.50;;;;;;;11.50;63.94;94027.50;106616;1275;25572;-77
2024/02/12 11:51:00;;;;;;;8.40;3.60;;;;;;;11.47;64.00;94023.23;106672;1274;22530;-77